createdAt,value
2023-03-20T00:01:34.087Z,0.10
2023-03-20T00:04:14.114Z,0.85
2023-03-20T00:06:47.397Z,0.00
2023-03-20T00:09:19.103Z,0.25
2023-03-20T00:11:56.745Z,0.57
2023-03-20T00:14:29.549Z,0.00
2023-03-20T00:16:59.596Z,0.00
2023-03-20T00:19:32.395Z,0.10
2023-03-20T00:22:11.110Z,0.00
2023-03-20T00:24:41.031Z,0.10
2023-03-20T00:27:16.590Z,0.00
2023-03-20T00:29:46.731Z,0.20
2023-03-20T00:32:22.531Z,0.20
2023-03-20T00:34:53.160Z,0.05
2023-03-20T00:37:24.314Z,0.47
2023-03-20T00:39:59.645Z,0.25
2023-03-20T00:42:38.177Z,0.45
2023-03-20T00:45:16.369Z,0.22
2023-03-20T00:48:00.733Z,0.00
2023-03-20T00:50:43.695Z,0.10
2023-03-20T00:53:18.392Z,0.82
2023-03-20T00:55:46.717Z,0.10
2023-03-20T00:58:15.329Z,0.05
2023-03-20T01:00:44.938Z,0.85
2023-03-20T01:03:20.719Z,0.10
2023-03-20T01:05:51.546Z,0.00
2023-03-20T01:08:24.196Z,0.63
2023-03-20T01:10:56.936Z,0.35
2023-03-20T01:13:31.190Z,0.40
2023-03-20T01:16:01.938Z,0.10
2023-03-20T01:18:30.568Z,0.10
2023-03-20T01:20:59.196Z,0.30
2023-03-20T01:23:28.092Z,0.30
2023-03-20T01:25:56.283Z,0.10
2023-03-20T01:28:26.128Z,0.25
2023-03-20T01:30:55.919Z,0.10
2023-03-20T01:33:29.543Z,0.30
2023-03-20T01:35:57.978Z,0.40
2023-03-20T01:38:28.388Z,0.20
2023-03-20T01:41:06.213Z,0.10
2023-03-20T01:43:36.516Z,0.25
2023-03-20T01:46:24.860Z,0.10
2023-03-20T01:49:07.549Z,0.20
2023-03-20T01:51:38.034Z,0.00
2023-03-20T01:54:18.311Z,0.10
2023-03-20T01:57:18.169Z,0.13
2023-03-20T01:59:47.217Z,0.70
2023-03-20T02:02:21.682Z,0.10
2023-03-20T02:04:54.491Z,0.50
2023-03-20T02:07:24.067Z,0.80
2023-03-20T02:10:10.777Z,0.10
2023-03-20T02:12:52.790Z,0.30
2023-03-20T02:15:31.959Z,0.08
2023-03-20T02:18:15.530Z,0.28
2023-03-20T02:21:11.035Z,0.47
2023-03-20T02:23:55.115Z,0.10
2023-03-20T02:26:50.904Z,0.20
2023-03-20T02:29:38.530Z,0.20
2023-03-20T02:32:25.811Z,0.38
2023-03-20T02:35:18.570Z,1.27
2023-03-20T02:38:18.351Z,0.00
2023-03-20T02:41:15.534Z,0.32
2023-03-20T02:44:22.362Z,1.02
2023-03-20T02:47:13.770Z,0.00
2023-03-20T02:49:43.397Z,0.50
2023-03-20T02:52:34.125Z,0.30
2023-03-20T02:55:44.547Z,0.10
2023-03-20T02:58:17.277Z,0.00
2023-03-20T03:00:59.177Z,0.15
2023-03-20T03:03:35.859Z,0.75
2023-03-20T03:06:18.508Z,0.47
2023-03-20T03:08:53.134Z,0.30
2023-03-20T03:11:22.142Z,0.10
2023-03-20T03:13:56.952Z,0.40
2023-03-20T03:16:33.480Z,0.20
2023-03-20T03:19:18.802Z,0.22
2023-03-20T03:21:49.416Z,0.38
2023-03-20T03:24:51.739Z,0.45
2023-03-20T03:27:33.857Z,0.43
2023-03-20T03:30:14.266Z,0.38
2023-03-20T03:32:45.977Z,0.10
2023-03-20T03:35:19.448Z,1.00
2023-03-20T03:38:01.983Z,0.40
2023-03-20T03:40:50.358Z,0.20
2023-03-20T03:43:24.606Z,0.28
2023-03-20T03:45:59.615Z,0.10
2023-03-20T03:48:36.425Z,0.03
2023-03-20T03:51:10.864Z,0.20
2023-03-20T03:53:56.461Z,0.10
2023-03-20T03:56:28.767Z,0.22
2023-03-20T03:59:01.713Z,0.10
2023-03-20T04:01:35.838Z,0.10
2023-03-20T04:04:10.108Z,0.10
2023-03-20T04:06:38.681Z,1.27
2023-03-20T04:09:08.396Z,0.80
2023-03-20T04:11:37.524Z,0.40
2023-03-20T04:14:06.376Z,0.47
2023-03-20T04:16:35.192Z,0.20
2023-03-20T04:19:03.944Z,0.10
2023-03-20T04:21:32.188Z,0.45
2023-03-20T04:24:00.822Z,0.10
2023-03-20T04:26:29.663Z,0.17
2023-03-20T04:28:59.303Z,0.20
2023-03-20T04:31:51.149Z,0.20
2023-03-20T04:34:46.208Z,0.60
2023-03-20T04:37:37.032Z,0.03
2023-03-20T04:40:08.748Z,0.38
2023-03-20T04:42:38.103Z,1.27
2023-03-20T04:45:09.412Z,0.75
2023-03-20T04:47:40.309Z,0.47
2023-03-20T04:50:09.077Z,0.10
2023-03-20T04:52:38.026Z,0.20
2023-03-20T04:55:08.208Z,0.95
2023-03-20T04:57:36.760Z,0.57
2023-03-20T05:00:06.941Z,0.20
2023-03-20T05:02:35.219Z,1.40
2023-03-20T05:05:03.785Z,0.00
2023-03-20T05:07:33.383Z,0.20
2023-03-20T05:10:06.368Z,0.30
2023-03-20T05:12:44.674Z,1.00
2023-03-20T05:15:38.962Z,0.52
2023-03-20T05:18:24.390Z,0.88
2023-03-20T05:21:06.017Z,0.90
2023-03-20T05:23:53.050Z,0.20
2023-03-20T05:29:12.911Z,0.00
2023-03-20T05:32:01.620Z,0.40
2023-03-20T05:34:37.307Z,1.52
2023-03-20T05:37:13.020Z,0.25
2023-03-20T05:40:02.315Z,1.30
2023-03-20T05:42:53.974Z,0.10
2023-03-20T05:45:43.652Z,0.00
2023-03-20T05:48:41.061Z,1.48
2023-03-20T05:51:18.576Z,1.98
2023-03-20T05:54:09.794Z,0.10
2023-03-20T05:56:58.940Z,0.73
2023-03-20T05:59:45.853Z,1.10
2023-03-20T06:02:14.325Z,0.10
2023-03-20T06:04:50.148Z,0.30
2023-03-20T06:07:27.234Z,0.35
2023-03-20T06:10:05.821Z,0.55
2023-03-20T06:12:34.460Z,0.45
2023-03-20T06:15:03.231Z,0.22
2023-03-20T06:17:34.676Z,0.30
2023-03-20T06:20:06.000Z,0.20
2023-03-20T06:22:35.644Z,0.25
2023-03-20T06:25:06.286Z,0.32
2023-03-20T06:27:41.660Z,0.10
2023-03-20T06:30:11.619Z,0.80
2023-03-20T06:32:41.939Z,0.15
2023-03-20T06:35:18.613Z,0.35
2023-03-20T06:37:49.522Z,0.10
2023-03-20T06:40:24.099Z,0.50
2023-03-20T06:42:53.011Z,0.60
2023-03-20T06:45:23.110Z,0.00
2023-03-20T06:47:58.783Z,0.40
2023-03-20T06:50:27.738Z,0.10
2023-03-20T06:59:22.936Z,0.52
2023-03-20T07:01:58.264Z,0.82
2023-03-20T07:04:32.819Z,0.75
2023-03-20T07:07:04.347Z,0.52
2023-03-20T07:09:39.633Z,0.10
2023-03-20T07:12:22.387Z,0.28
2023-03-20T07:14:58.717Z,0.17
2023-03-20T07:17:30.653Z,1.40
2023-03-20T07:20:01.092Z,0.00
2023-03-20T07:22:34.141Z,0.10
2023-03-20T07:25:42.288Z,0.20
2023-03-20T07:28:18.956Z,0.82
2023-03-20T07:30:58.990Z,0.00
2023-03-20T07:33:33.252Z,0.08
2023-03-20T07:36:10.507Z,1.40
2023-03-20T07:38:47.186Z,1.35
2023-03-20T07:41:21.287Z,0.68
2023-03-20T07:44:01.898Z,1.00
2023-03-20T07:47:01.402Z,0.60
2023-03-20T07:49:33.400Z,0.38
2023-03-20T07:52:03.033Z,0.73
2023-03-20T07:54:36.145Z,1.45
2023-03-20T07:57:16.582Z,0.10
2023-03-20T07:59:47.633Z,0.13
2023-03-20T08:02:17.619Z,0.40
2023-03-20T08:04:47.739Z,0.32
2023-03-20T08:07:17.486Z,0.10
2023-03-20T08:09:47.990Z,0.38
2023-03-20T08:12:17.604Z,0.00
2023-03-20T08:14:46.741Z,1.00
2023-03-20T08:17:21.308Z,0.10
2023-03-20T08:19:57.148Z,1.27
2023-03-20T08:22:27.569Z,0.00
2023-03-20T08:25:00.029Z,0.10
2023-03-20T08:27:30.072Z,0.10
2023-03-20T08:29:59.105Z,0.25
2023-03-20T08:32:30.786Z,0.50
2023-03-20T08:35:02.357Z,0.20
2023-03-20T08:37:31.143Z,1.15
2023-03-20T08:39:59.938Z,1.75
2023-03-20T08:42:29.700Z,0.40
2023-03-20T08:45:00.649Z,0.08
2023-03-20T08:47:29.281Z,0.65
2023-03-20T08:50:00.044Z,1.40
2023-03-20T08:52:32.460Z,0.30
2023-03-20T08:55:02.132Z,0.00
2023-03-20T08:57:32.248Z,0.57
2023-03-20T09:00:05.853Z,0.28
2023-03-20T09:02:37.680Z,1.48
2023-03-20T09:05:09.329Z,0.20
2023-03-20T09:07:39.256Z,0.68
2023-03-20T09:10:09.465Z,0.88
2023-03-20T09:12:41.465Z,0.50
2023-03-20T09:15:12.930Z,0.35
2023-03-20T09:17:45.310Z,1.15
2023-03-20T09:22:46.034Z,0.22
2023-03-20T09:25:19.018Z,0.20
2023-03-20T09:27:47.682Z,0.25
2023-03-20T09:30:19.570Z,0.15
2023-03-20T09:32:48.659Z,0.10
2023-03-20T09:35:18.537Z,0.82
2023-03-20T09:37:48.395Z,0.00
2023-03-20T09:40:49.820Z,0.32
2023-03-20T09:43:29.472Z,0.32
2023-03-20T09:46:23.722Z,0.57
2023-03-20T09:49:15.247Z,0.35
2023-03-20T09:51:50.030Z,0.55
2023-03-20T09:54:53.628Z,1.40
2023-03-20T09:57:35.818Z,0.50
2023-03-20T10:00:17.385Z,0.30
2023-03-20T10:03:01.664Z,0.32
2023-03-20T10:05:35.245Z,0.00
2023-03-20T10:08:07.718Z,0.50
2023-03-20T10:11:20.326Z,0.32
2023-03-20T10:14:12.387Z,0.20
2023-03-20T10:17:28.721Z,0.25
2023-03-20T10:20:14.932Z,1.40
2023-03-20T10:22:55.432Z,0.00
2023-03-20T10:25:51.956Z,0.63
2023-03-20T10:28:51.663Z,0.20
2023-03-20T10:31:44.185Z,0.88
2023-03-20T10:34:51.081Z,0.15
2023-03-20T10:37:25.758Z,1.17
2023-03-20T10:40:12.753Z,0.52
2023-03-20T10:42:48.297Z,0.15
2023-03-20T10:45:42.969Z,0.10
2023-03-20T10:48:45.463Z,1.27
2023-03-20T10:51:18.794Z,0.13
2023-03-20T10:53:50.299Z,0.00
2023-03-20T10:56:36.835Z,0.30
2023-03-20T10:59:24.164Z,1.10
2023-03-20T11:01:54.398Z,0.20
2023-03-20T11:04:25.243Z,0.10
2023-03-20T11:07:33.622Z,0.50
2023-03-20T11:10:08.977Z,1.55
2023-03-20T11:12:44.236Z,0.88
2023-03-20T11:15:31.951Z,0.73
2023-03-20T11:18:06.998Z,0.45
2023-03-20T11:20:56.853Z,0.20
2023-03-20T11:23:30.829Z,0.82
2023-03-20T11:26:01.647Z,0.32
2023-03-20T11:28:40.643Z,0.47
2023-03-20T11:31:12.877Z,2.50
2023-03-20T11:33:47.672Z,1.07
2023-03-20T11:36:34.290Z,0.10
2023-03-20T11:39:23.320Z,0.10
2023-03-20T11:42:03.717Z,0.57
2023-03-20T11:44:51.256Z,0.10
2023-03-20T11:47:26.582Z,0.00
2023-03-20T11:50:03.072Z,0.00
2023-03-20T11:52:40.011Z,0.05
2023-03-20T11:55:29.666Z,0.43
2023-03-20T11:58:01.074Z,1.00
2023-03-20T12:00:42.898Z,0.65
2023-03-20T12:03:47.727Z,0.00
2023-03-20T12:06:22.687Z,0.20
2023-03-20T12:09:09.323Z,1.05
2023-03-20T12:12:24.508Z,0.43
2023-03-20T12:15:24.068Z,0.25
2023-03-20T12:18:04.575Z,0.10
2023-03-20T12:20:49.349Z,0.00
2023-03-20T12:23:37.398Z,0.43
2023-03-20T12:26:17.397Z,0.10
2023-03-20T12:29:24.924Z,0.30
2023-03-20T12:32:04.723Z,0.77
2023-03-20T12:35:04.392Z,1.33
2023-03-20T12:37:36.220Z,4.45
2023-03-20T12:40:07.981Z,2.80
2023-03-20T12:42:42.756Z,1.17
2023-03-20T12:45:14.842Z,2.15
2023-03-20T12:48:24.553Z,1.27
2023-03-20T12:51:27.470Z,1.10
2023-03-20T12:54:03.616Z,3.45
2023-03-20T12:57:17.519Z,0.68
2023-03-20T12:59:59.855Z,1.45
2023-03-20T13:02:35.529Z,0.88
2023-03-20T13:05:37.277Z,0.20
2023-03-20T13:08:17.043Z,0.52
2023-03-20T13:11:10.507Z,0.85
2023-03-20T13:13:52.392Z,1.67
2023-03-20T13:16:53.178Z,0.45
2023-03-20T13:19:41.657Z,0.93
2023-03-20T13:22:26.174Z,0.68
2023-03-20T13:25:16.620Z,0.17
2023-03-20T13:28:34.060Z,0.20
2023-03-20T13:31:24.551Z,1.05
2023-03-20T13:34:12.705Z,0.30
2023-03-20T13:37:21.888Z,0.20
2023-03-20T13:40:13.983Z,1.17
2023-03-20T13:42:52.438Z,0.47
2023-03-20T13:45:45.689Z,0.57
2023-03-20T13:48:25.036Z,0.52
2023-03-20T13:51:14.885Z,0.65
2023-03-20T13:54:02.115Z,0.63
2023-03-20T13:56:58.514Z,0.00
2023-03-20T14:00:09.565Z,0.85
2023-03-20T14:03:30.748Z,0.40
2023-03-20T14:06:01.393Z,0.80
2023-03-20T14:08:34.138Z,0.95
2023-03-20T14:11:14.078Z,0.90
2023-03-20T14:13:54.682Z,1.95
2023-03-20T14:16:24.188Z,0.30
2023-03-20T14:19:11.615Z,0.40
2023-03-20T14:21:58.735Z,0.73
2023-03-20T14:24:33.714Z,0.15
2023-03-20T14:27:15.651Z,0.13
2023-03-20T14:29:55.113Z,0.75
2023-03-20T14:35:31.303Z,1.50
2023-03-20T14:38:14.879Z,5.68
2023-03-20T14:40:53.549Z,5.60
2023-03-20T14:43:49.696Z,5.18
2023-03-20T14:46:35.056Z,4.35
2023-03-20T14:49:23.682Z,3.17
2023-03-20T14:51:58.055Z,2.33
2023-03-20T14:54:32.598Z,3.72
2023-03-20T14:57:22.852Z,2.20
2023-03-20T14:59:53.793Z,2.40
2023-03-20T15:02:38.441Z,1.58
2023-03-20T15:05:29.657Z,1.73
2023-03-20T15:08:05.900Z,1.45
2023-03-20T15:10:40.187Z,1.23
2023-03-20T15:13:09.846Z,0.85
2023-03-20T15:16:16.305Z,0.95
2023-03-20T15:18:59.502Z,1.48
2023-03-20T15:21:33.219Z,0.47
2023-03-20T15:24:02.735Z,0.10
2023-03-20T15:26:36.831Z,0.65
2023-03-20T15:29:09.092Z,0.63
2023-03-20T15:31:43.583Z,0.43
2023-03-20T15:34:28.430Z,1.30
2023-03-20T15:37:08.129Z,0.40
2023-03-20T15:39:52.964Z,0.22
2023-03-20T15:42:25.971Z,0.85
2023-03-20T15:44:57.370Z,0.75
2023-03-20T15:47:35.940Z,0.00
2023-03-20T15:50:09.717Z,0.77
2023-03-20T15:52:44.333Z,0.60
2023-03-20T15:55:20.023Z,0.20
2023-03-20T15:57:51.876Z,0.03
2023-03-20T16:00:45.142Z,0.63
2023-03-20T16:03:20.561Z,0.52
2023-03-20T16:05:56.196Z,0.10
2023-03-20T16:08:45.417Z,0.88
2023-03-20T16:11:20.190Z,0.10
2023-03-20T16:13:51.075Z,0.75
2023-03-20T16:16:26.765Z,0.85
2023-03-20T16:18:59.372Z,0.25
2023-03-20T16:21:33.404Z,1.05
2023-03-20T16:24:12.797Z,2.00
2023-03-20T16:26:46.558Z,0.43
